createdAt,value
2018-05-02T00:00:00.649Z,1009.17
2018-05-02T00:01:00.646Z,1009.16
2018-05-02T00:02:00.642Z,1009.15
2018-05-02T00:03:00.626Z,1009.14
2018-05-02T00:04:00.619Z,1009.15
2018-05-02T00:05:00.623Z,1009.17
2018-05-02T00:06:00.612Z,1009.05
2018-05-02T00:07:00.599Z,1009.15
2018-05-02T00:08:00.593Z,1009.12
2018-05-02T00:09:00.588Z,1009.08
2018-05-02T00:10:00.577Z,1009.12
2018-05-02T00:11:00.571Z,1009.09
2018-05-02T00:12:00.563Z,1009.11
2018-05-02T00:13:00.556Z,1009.10
2018-05-02T00:14:00.550Z,1009.08
2018-05-02T00:15:00.548Z,1009.07
2018-05-02T00:16:00.539Z,1009.06
2018-05-02T00:17:00.527Z,1009.07
2018-05-02T00:18:00.574Z,1009.08
2018-05-02T00:19:00.517Z,1009.06
2018-05-02T00:20:00.511Z,1009.10
2018-05-02T00:21:00.498Z,1009.06
2018-05-02T00:22:00.492Z,1009.07
2018-05-02T00:23:00.485Z,1009.09
2018-05-02T00:24:00.478Z,1009.09
2018-05-02T00:25:00.470Z,1009.07
2018-05-02T00:26:00.463Z,1009.10
2018-05-02T00:27:00.456Z,1009.05
2018-05-02T00:28:00.449Z,1009.06
2018-05-02T00:29:00.441Z,1009.06
2018-05-02T00:30:00.434Z,1009.06
2018-05-02T00:31:00.427Z,1009.09
2018-05-02T00:32:00.422Z,1009.02
2018-05-02T00:33:00.416Z,1009.06
2018-05-02T00:34:00.504Z,1009.03
2018-05-02T00:35:00.398Z,1009.07
2018-05-02T00:36:00.391Z,1009.01
2018-05-02T00:37:00.387Z,1009.00
2018-05-02T00:38:00.380Z,1009.00
2018-05-02T00:39:00.374Z,1009.01
2018-05-02T00:40:00.362Z,1008.98
2018-05-02T00:41:00.354Z,1009.04
2018-05-02T00:42:00.350Z,1009.03
2018-05-02T00:43:00.340Z,1009.01
2018-05-02T00:44:00.336Z,1009.00
2018-05-02T00:45:00.410Z,1008.98
2018-05-02T00:46:00.324Z,1009.01
2018-05-02T00:47:00.312Z,1008.98
2018-05-02T00:48:00.305Z,1008.96
2018-05-02T00:49:00.297Z,1009.00
2018-05-02T00:50:00.289Z,1008.92
2018-05-02T00:51:00.290Z,1008.89
2018-05-02T00:52:00.275Z,1008.88
2018-05-02T00:53:00.267Z,1008.87
2018-05-02T00:54:00.260Z,1008.91
2018-05-02T00:55:00.253Z,1008.87
2018-05-02T00:56:00.246Z,1008.89
2018-05-02T00:57:00.242Z,1008.92
2018-05-02T00:58:00.236Z,1008.91
2018-05-02T00:59:00.229Z,1008.93
2018-05-02T01:00:00.222Z,1008.96
2018-05-02T01:01:00.210Z,1008.94
2018-05-02T01:02:00.200Z,1008.94
2018-05-02T01:03:00.193Z,1008.95
2018-05-02T01:04:00.188Z,1008.94
2018-05-02T01:05:00.184Z,1008.96
2018-05-02T01:06:00.172Z,1008.95
2018-05-02T01:07:00.164Z,1008.96
2018-05-02T01:08:00.162Z,1008.98
2018-05-02T01:09:00.156Z,1008.98
2018-05-02T01:10:00.151Z,1008.95
2018-05-02T01:11:00.138Z,1008.98
2018-05-02T01:12:00.137Z,1008.97
2018-05-02T01:13:00.122Z,1009.02
2018-05-02T01:14:00.113Z,1008.92
2018-05-02T01:15:00.105Z,1008.97
2018-05-02T01:16:00.098Z,1008.98
2018-05-02T01:17:00.095Z,1008.99
2018-05-02T01:18:00.087Z,1008.96
2018-05-02T01:19:00.075Z,1009.02
2018-05-02T01:20:00.068Z,1009.05
2018-05-02T01:21:00.061Z,1009.04
2018-05-02T01:22:00.052Z,1009.06
2018-05-02T01:23:00.046Z,1009.07
2018-05-02T01:24:00.042Z,1009.05
2018-05-02T01:25:00.031Z,1009.08
2018-05-02T01:26:00.022Z,1009.11
2018-05-02T01:27:00.016Z,1009.13
2018-05-02T01:28:00.008Z,1009.14
2018-05-02T01:29:00.005Z,1009.11
2018-05-02T01:29:59.997Z,1009.09
2018-05-02T01:30:59.989Z,1009.13
2018-05-02T01:31:59.982Z,1009.11
2018-05-02T01:32:59.969Z,1009.12
2018-05-02T01:33:59.962Z,1009.17
2018-05-02T01:34:59.955Z,1009.14
2018-05-02T01:35:59.947Z,1009.19
2018-05-02T01:36:59.939Z,1009.16
2018-05-02T01:37:59.932Z,1009.18
2018-05-02T01:38:59.924Z,1009.19
2018-05-02T01:39:59.917Z,1009.18
2018-05-02T01:40:59.910Z,1009.11
2018-05-02T01:41:59.902Z,1009.13
2018-05-02T01:42:59.898Z,1009.13
2018-05-02T01:43:59.893Z,1009.08
2018-05-02T01:44:59.878Z,1009.14
2018-05-02T01:45:59.871Z,1009.15
2018-05-02T01:46:59.864Z,1009.20
2018-05-02T01:47:59.858Z,1009.12
2018-05-02T01:48:59.848Z,1009.12
2018-05-02T01:49:59.840Z,1009.18
2018-05-02T01:50:59.838Z,1009.15
2018-05-02T01:51:59.830Z,1009.14
2018-05-02T01:52:59.819Z,1009.13
2018-05-02T01:53:59.810Z,1009.12
2018-05-02T01:54:59.806Z,1009.10
2018-05-02T01:55:59.800Z,1009.06
2018-05-02T01:56:59.788Z,1009.08
2018-05-02T01:57:59.780Z,1009.06
2018-05-02T01:58:59.772Z,1009.04
2018-05-02T01:59:59.765Z,1009.04
2018-05-02T02:00:59.756Z,1009.06
2018-05-02T02:01:59.749Z,1009.07
2018-05-02T02:02:59.742Z,1009.03
2018-05-02T02:03:59.734Z,1009.03
2018-05-02T02:04:59.725Z,1008.99
2018-05-02T02:05:59.717Z,1008.99
2018-05-02T02:06:59.710Z,1008.97
2018-05-02T02:07:59.704Z,1008.94
2018-05-02T02:08:59.700Z,1008.93
2018-05-02T02:09:59.691Z,1008.94
2018-05-02T02:10:59.679Z,1008.92
2018-05-02T02:11:59.678Z,1008.93
2018-05-02T02:12:59.667Z,1008.90
2018-05-02T02:13:59.663Z,1008.92
2018-05-02T02:14:59.648Z,1008.87
2018-05-02T02:15:59.640Z,1008.86
2018-05-02T02:16:59.632Z,1008.85
2018-05-02T02:17:59.625Z,1008.81
2018-05-02T02:18:59.617Z,1008.78
2018-05-02T02:19:59.609Z,1008.74
2018-05-02T02:20:59.609Z,1008.77
2018-05-02T02:21:59.595Z,1008.72
2018-05-02T02:22:59.590Z,1008.73
2018-05-02T02:23:59.582Z,1008.74
2018-05-02T02:24:59.569Z,1008.71
2018-05-02T02:25:59.560Z,1008.73
2018-05-02T02:26:59.558Z,1008.68
2018-05-02T02:27:59.552Z,1008.74
2018-05-02T02:28:59.541Z,1008.70
2018-05-02T02:29:59.530Z,1008.71
2018-05-02T02:30:59.523Z,1008.68
2018-05-02T02:31:59.516Z,1008.62
2018-05-02T02:32:59.506Z,1008.63
2018-05-02T02:33:59.505Z,1008.60
2018-05-02T02:34:59.491Z,1008.63
2018-05-02T02:35:59.484Z,1008.67
2018-05-02T02:36:59.475Z,1008.61
2018-05-02T02:37:59.469Z,1008.68
2018-05-02T02:38:59.460Z,1008.62
2018-05-02T02:39:59.451Z,1008.69
2018-05-02T02:40:59.447Z,1008.70
2018-05-02T02:41:59.439Z,1008.64
2018-05-02T02:42:59.427Z,1008.63
2018-05-02T02:43:59.422Z,1008.65
2018-05-02T02:44:59.415Z,1008.68
2018-05-02T02:45:59.407Z,1008.69
2018-05-02T02:46:59.395Z,1008.68
2018-05-02T02:47:59.389Z,1008.66
2018-05-02T02:48:59.384Z,1008.69
2018-05-02T02:49:59.370Z,1008.57
2018-05-02T02:50:59.367Z,1008.66
2018-05-02T02:51:59.360Z,1008.66
2018-05-02T02:52:59.346Z,1008.63
2018-05-02T02:53:59.339Z,1008.59
2018-05-02T02:54:59.335Z,1008.60
2018-05-02T02:55:59.330Z,1008.59
2018-05-02T02:56:59.322Z,1008.54
2018-05-02T02:57:59.307Z,1008.51
2018-05-02T02:58:59.304Z,1008.48
2018-05-02T02:59:59.297Z,1008.55
2018-05-02T03:00:59.282Z,1008.53
2018-05-02T03:01:59.277Z,1008.50
2018-05-02T03:02:59.273Z,1008.53
2018-05-02T03:03:59.259Z,1008.58
2018-05-02T03:04:59.250Z,1008.50
2018-05-02T03:05:59.242Z,1008.54
2018-05-02T03:06:59.235Z,1008.54
2018-05-02T03:07:59.228Z,1008.54
2018-05-02T03:08:59.220Z,1008.49
2018-05-02T03:09:59.211Z,1008.50
2018-05-02T03:10:59.204Z,1008.47
2018-05-02T03:11:59.195Z,1008.47
2018-05-02T03:12:59.194Z,1008.53
2018-05-02T03:13:59.182Z,1008.48
2018-05-02T03:14:59.169Z,1008.49
2018-05-02T03:15:59.162Z,1008.48
2018-05-02T03:16:59.157Z,1008.48
2018-05-02T03:17:59.150Z,1008.52
2018-05-02T03:18:59.137Z,1008.47
2018-05-02T03:19:59.129Z,1008.53
2018-05-02T03:20:59.121Z,1008.51
2018-05-02T03:21:59.113Z,1008.52
2018-05-02T03:22:59.105Z,1008.51
2018-05-02T03:23:59.096Z,1008.54
2018-05-02T03:24:59.088Z,1008.53
2018-05-02T03:25:59.080Z,1008.51
2018-05-02T03:26:59.127Z,1008.53
2018-05-02T03:27:59.067Z,1008.48
2018-05-02T03:28:59.054Z,1008.54
2018-05-02T03:29:59.046Z,1008.49
2018-05-02T03:30:59.044Z,1008.53
2018-05-02T03:31:59.035Z,1008.54
2018-05-02T03:32:59.025Z,1008.57
2018-05-02T03:33:59.013Z,1008.52
2018-05-02T03:34:59.005Z,1008.50
2018-05-02T03:35:58.998Z,1008.50
2018-05-02T03:36:58.988Z,1008.46
2018-05-02T03:37:58.980Z,1008.42
2018-05-02T03:38:58.973Z,1008.47
2018-05-02T03:39:58.965Z,1008.45
2018-05-02T03:40:58.962Z,1008.49
2018-05-02T03:41:58.948Z,1008.51
2018-05-02T03:42:58.940Z,1008.48
2018-05-02T03:43:58.930Z,1008.51
2018-05-02T03:44:58.927Z,1008.51
2018-05-02T03:45:58.919Z,1008.48
2018-05-02T03:46:58.906Z,1008.53
2018-05-02T03:47:58.899Z,1008.48
2018-05-02T03:48:58.893Z,1008.57
2018-05-02T03:49:58.885Z,1008.55
2018-05-02T03:50:58.872Z,1008.55
2018-05-02T03:51:58.865Z,1008.52
2018-05-02T03:52:58.938Z,1008.52
2018-05-02T03:53:58.848Z,1008.56
2018-05-02T03:54:58.840Z,1008.57
2018-05-02T03:55:58.831Z,1008.58
2018-05-02T03:56:58.826Z,1008.59
2018-05-02T03:57:58.819Z,1008.63
2018-05-02T03:58:58.807Z,1008.58
2018-05-02T03:59:58.801Z,1008.62
2018-05-02T04:00:58.790Z,1008.61
2018-05-02T04:01:58.784Z,1008.62
2018-05-02T04:02:58.774Z,1008.61
2018-05-02T04:03:58.766Z,1008.65
2018-05-02T04:04:58.757Z,1008.71
2018-05-02T04:05:58.749Z,1008.67
2018-05-02T04:06:58.741Z,1008.68
2018-05-02T04:07:58.733Z,1008.68
2018-05-02T04:08:58.729Z,1008.70
2018-05-02T04:09:58.720Z,1008.70
2018-05-02T04:10:58.713Z,1008.73
2018-05-02T04:11:58.704Z,1008.69
2018-05-02T04:12:58.691Z,1008.73
2018-05-02T04:13:58.683Z,1008.74
2018-05-02T04:14:58.675Z,1008.76
2018-05-02T04:15:58.669Z,1008.77
2018-05-02T04:16:58.658Z,1008.81
2018-05-02T04:17:58.651Z,1008.81
2018-05-02T04:18:58.643Z,1008.84
2018-05-02T04:19:58.636Z,1008.85
2018-05-02T04:20:58.626Z,1008.89
2018-05-02T04:21:58.619Z,1008.83
2018-05-02T04:22:58.615Z,1008.79
2018-05-02T04:23:58.607Z,1008.86
2018-05-02T04:24:58.593Z,1008.84
2018-05-02T04:25:58.614Z,1008.83
2018-05-02T04:26:58.578Z,1008.86
2018-05-02T04:27:58.570Z,1008.85
2018-05-02T04:28:58.565Z,1008.91
2018-05-02T04:29:58.561Z,1008.93
2018-05-02T04:30:58.547Z,1009.03
2018-05-02T04:31:58.538Z,1009.00
2018-05-02T04:32:58.528Z,1009.00
2018-05-02T04:33:58.521Z,1009.01
2018-05-02T04:34:58.514Z,1009.00
2018-05-02T04:35:58.504Z,1009.01
2018-05-02T04:36:58.496Z,1009.08
2018-05-02T04:37:58.488Z,1009.09
2018-05-02T04:38:58.479Z,1009.13
2018-05-02T04:39:58.473Z,1009.14
2018-05-02T04:40:58.544Z,1009.24
2018-05-02T04:41:58.460Z,1009.29
2018-05-02T04:42:58.454Z,1009.29
2018-05-02T04:43:58.447Z,1009.28
2018-05-02T04:44:58.433Z,1009.26
2018-05-02T04:45:58.426Z,1009.30
2018-05-02T04:46:58.421Z,1009.35
2018-05-02T04:47:58.411Z,1009.33
2018-05-02T04:48:58.404Z,1009.33
2018-05-02T04:49:58.396Z,1009.34
2018-05-02T04:50:58.389Z,1009.36
2018-05-02T04:51:58.383Z,1009.41
2018-05-02T04:52:58.377Z,1009.42
2018-05-02T04:53:58.370Z,1009.47
2018-05-02T04:54:58.367Z,1009.52
2018-05-02T04:55:58.363Z,1009.51
2018-05-02T04:56:58.352Z,1009.55
2018-05-02T04:57:58.344Z,1009.59
2018-05-02T04:58:58.341Z,1009.60
2018-05-02T04:59:58.336Z,1009.62
2018-05-02T05:00:58.327Z,1009.70
2018-05-02T05:01:58.323Z,1009.65
2018-05-02T05:02:58.336Z,1009.69
2018-05-02T05:03:58.316Z,1009.72
2018-05-02T05:04:58.307Z,1009.78
2018-05-02T05:05:58.302Z,1009.83
2018-05-02T05:06:58.303Z,1009.86
2018-05-02T05:07:58.297Z,1009.84
2018-05-02T05:08:58.288Z,1009.90
2018-05-02T05:09:58.283Z,1009.93
2018-05-02T05:10:58.281Z,1009.94
2018-05-02T05:11:58.277Z,1010.02
2018-05-02T05:12:58.274Z,1009.96
2018-05-02T05:13:58.272Z,1010.00
2018-05-02T05:14:58.267Z,1010.02
2018-05-02T05:15:58.264Z,1010.03
2018-05-02T05:16:58.259Z,1010.03
2018-05-02T05:17:58.256Z,1010.07
2018-05-02T05:18:58.254Z,1010.11
2018-05-02T05:19:58.252Z,1010.13
2018-05-02T05:20:58.253Z,1010.15
2018-05-02T05:21:58.250Z,1010.20
2018-05-02T05:22:58.244Z,1010.20
2018-05-02T05:23:58.243Z,1010.23
2018-05-02T05:24:58.245Z,1010.24
2018-05-02T05:25:58.244Z,1010.22
2018-05-02T05:26:58.237Z,1010.23
2018-05-02T05:27:58.236Z,1010.33
2018-05-02T05:28:58.236Z,1010.35
2018-05-02T05:29:58.233Z,1010.33
2018-05-02T05:30:58.232Z,1010.38
2018-05-02T05:31:58.232Z,1010.40
2018-05-02T05:32:58.230Z,1010.42
2018-05-02T05:33:58.230Z,1010.42
2018-05-02T05:34:58.234Z,1010.40
2018-05-02T05:35:58.233Z,1010.41
2018-05-02T05:36:58.231Z,1010.40
2018-05-02T05:37:58.228Z,1010.41
2018-05-02T05:38:58.233Z,1010.42
2018-05-02T05:39:58.232Z,1010.40
2018-05-02T05:40:58.227Z,1010.48
2018-05-02T05:41:58.229Z,1010.50
2018-05-02T05:42:58.229Z,1010.49
2018-05-02T05:43:58.231Z,1010.49
2018-05-02T05:44:58.229Z,1010.55
2018-05-02T05:45:58.230Z,1010.57
2018-05-02T05:46:58.231Z,1010.53
2018-05-02T05:47:58.232Z,1010.63
2018-05-02T05:48:58.233Z,1010.56
2018-05-02T05:49:58.233Z,1010.60
2018-05-02T05:50:58.235Z,1010.64
2018-05-02T05:51:58.236Z,1010.65
2018-05-02T05:52:58.241Z,1010.64
2018-05-02T05:53:58.260Z,1010.61
2018-05-02T05:54:58.242Z,1010.61
2018-05-02T05:55:58.243Z,1010.65
2018-05-02T05:56:58.249Z,1010.67
2018-05-02T05:57:58.249Z,1010.67
2018-05-02T05:58:58.259Z,1010.66
2018-05-02T05:59:58.251Z,1010.72
2018-05-02T06:00:58.251Z,1010.77
2018-05-02T06:01:58.253Z,1010.78
2018-05-02T06:02:58.257Z,1010.78
2018-05-02T06:03:58.259Z,1010.78
2018-05-02T06:04:58.266Z,1010.81
2018-05-02T06:05:58.267Z,1010.89
2018-05-02T06:06:58.266Z,1010.82
2018-05-02T06:07:58.270Z,1010.85
2018-05-02T06:08:58.271Z,1010.82
2018-05-02T06:09:58.275Z,1010.87
2018-05-02T06:10:58.277Z,1010.86
2018-05-02T06:11:58.280Z,1010.85
2018-05-02T06:12:58.285Z,1010.86
2018-05-02T06:13:58.285Z,1010.88
2018-05-02T06:14:58.288Z,1010.88
2018-05-02T06:15:58.292Z,1010.97
2018-05-02T06:16:58.298Z,1010.93
2018-05-02T06:17:58.302Z,1010.97
2018-05-02T06:18:58.306Z,1010.92
2018-05-02T06:19:58.308Z,1010.95
2018-05-02T06:20:58.306Z,1010.93
2018-05-02T06:21:58.310Z,1011.02
2018-05-02T06:22:58.314Z,1010.97
2018-05-02T06:23:58.318Z,1010.94
2018-05-02T06:24:58.321Z,1011.01
2018-05-02T06:25:58.326Z,1011.00
2018-05-02T06:26:58.329Z,1011.01
2018-05-02T06:27:58.333Z,1011.00
2018-05-02T06:28:58.338Z,1011.02
2018-05-02T06:29:58.340Z,1011.02
2018-05-02T06:30:58.349Z,1011.05
2018-05-02T06:31:58.423Z,1011.04
2018-05-02T06:32:58.353Z,1011.02
2018-05-02T06:33:58.358Z,1010.98
2018-05-02T06:34:58.362Z,1011.01
2018-05-02T06:35:58.367Z,1011.01
2018-05-02T06:36:58.379Z,1011.03
2018-05-02T06:37:58.573Z,1010.98
2018-05-02T06:38:58.381Z,1011.05
2018-05-02T06:39:58.388Z,1011.05
2018-05-02T06:40:58.392Z,1011.03
2018-05-02T06:41:58.396Z,1011.05
2018-05-02T06:42:58.401Z,1011.00
2018-05-02T06:43:58.408Z,1011.02
2018-05-02T06:44:58.412Z,1011.10
2018-05-02T06:45:58.419Z,1011.07
2018-05-02T06:46:58.423Z,1011.10
2018-05-02T06:47:58.429Z,1011.14
2018-05-02T06:48:58.439Z,1011.16
2018-05-02T06:49:58.450Z,1011.14
2018-05-02T06:50:58.451Z,1011.10
2018-05-02T06:51:58.459Z,1011.05
2018-05-02T06:52:58.459Z,1011.07
2018-05-02T06:53:58.467Z,1011.10
2018-05-02T06:54:58.473Z,1011.12
2018-05-02T06:55:58.480Z,1011.15
2018-05-02T06:56:58.485Z,1011.13
2018-05-02T06:57:58.492Z,1011.18
2018-05-02T06:58:58.500Z,1011.13
2018-05-02T06:59:58.508Z,1011.18
2018-05-02T07:00:58.631Z,1011.19
2018-05-02T07:01:58.521Z,1011.21
2018-05-02T07:02:58.533Z,1011.19
2018-05-02T07:03:58.538Z,1011.23
2018-05-02T07:04:58.542Z,1011.23
2018-05-02T07:05:58.549Z,1011.17
2018-05-02T07:06:58.556Z,1011.20
2018-05-02T07:07:58.564Z,1011.19
2018-05-02T07:08:58.573Z,1011.22
2018-05-02T07:09:58.578Z,1011.24
2018-05-02T07:10:58.586Z,1011.26
2018-05-02T07:11:58.596Z,1011.20
2018-05-02T07:12:58.606Z,1011.24
2018-05-02T07:13:58.615Z,1011.19
2018-05-02T07:14:58.617Z,1011.16
2018-05-02T07:15:58.625Z,1011.20
2018-05-02T07:16:58.637Z,1011.24
2018-05-02T07:17:58.644Z,1011.23
2018-05-02T07:18:58.650Z,1011.29
2018-05-02T07:19:58.657Z,1011.32
2018-05-02T07:20:58.664Z,1011.27
2018-05-02T07:21:58.673Z,1011.30
2018-05-02T07:22:58.682Z,1011.33
2018-05-02T07:23:58.747Z,1011.28
2018-05-02T07:24:58.701Z,1010.43
2018-05-02T07:25:58.708Z,1010.35
2018-05-02T07:26:58.722Z,1010.32
2018-05-02T07:27:58.731Z,1010.37
2018-05-02T07:28:58.737Z,1010.36
2018-05-02T07:29:58.744Z,1010.43
2018-05-02T07:30:58.757Z,1010.37
2018-05-02T07:31:58.766Z,1010.37
2018-05-02T07:32:58.953Z,1010.41
2018-05-02T07:33:58.781Z,1010.54
2018-05-02T07:34:58.791Z,1010.48
2018-05-02T07:35:58.800Z,1010.44
2018-05-02T07:36:58.810Z,1010.49
2018-05-02T07:37:58.821Z,1010.56
2018-05-02T07:38:58.831Z,1010.54
2018-05-02T07:39:58.840Z,1010.51
2018-05-02T07:40:58.849Z,1010.50
2018-05-02T07:41:58.862Z,1010.45
2018-05-02T07:42:58.872Z,1010.37
2018-05-02T07:43:58.882Z,1010.39
2018-05-02T07:44:58.898Z,1010.36
2018-05-02T07:45:58.907Z,1010.40
2018-05-02T07:46:58.991Z,1010.31
2018-05-02T07:47:58.925Z,1010.36
2018-05-02T07:48:58.941Z,1010.32
2018-05-02T07:49:58.952Z,1010.31
2018-05-02T07:50:58.959Z,1010.32
2018-05-02T07:51:58.971Z,1010.33
2018-05-02T07:52:58.996Z,1010.34
2018-05-02T07:53:58.993Z,1010.38
2018-05-02T07:54:59.005Z,1010.35
2018-05-02T07:55:59.022Z,1010.37
2018-05-02T07:56:59.032Z,1010.33
2018-05-02T07:57:59.043Z,1010.32
2018-05-02T07:58:59.058Z,1010.33
2018-05-02T07:59:59.069Z,1010.31
2018-05-02T08:00:59.077Z,1010.32
2018-05-02T08:01:59.091Z,1010.29
2018-05-02T08:02:59.106Z,1010.31
2018-05-02T08:03:59.119Z,1010.29
2018-05-02T08:04:59.127Z,1010.30
2018-05-02T08:05:59.140Z,1010.33
2018-05-02T08:06:59.153Z,1010.31
2018-05-02T08:07:59.167Z,1010.30
2018-05-02T08:08:59.178Z,1010.28
2018-05-02T08:09:59.195Z,1010.25
2018-05-02T08:10:59.292Z,1010.26
2018-05-02T08:11:59.223Z,1010.26
2018-05-02T08:12:59.231Z,1010.32
2018-05-02T08:13:59.245Z,1010.26
2018-05-02T08:14:59.263Z,1010.23
2018-05-02T08:15:59.273Z,1010.37
2018-05-02T08:16:59.285Z,1010.32
2018-05-02T08:17:59.299Z,1010.31
2018-05-02T08:18:59.314Z,1010.32
2018-05-02T08:19:59.326Z,1010.32
2018-05-02T08:20:59.339Z,1010.34
2018-05-02T08:21:59.360Z,1010.30
2018-05-02T08:22:59.370Z,1010.32
2018-05-02T08:23:59.384Z,1010.35
2018-05-02T08:24:59.394Z,1010.42
2018-05-02T08:25:59.411Z,1010.40
2018-05-02T08:26:59.421Z,1010.40
2018-05-02T08:27:59.435Z,1010.35
2018-05-02T08:28:59.452Z,1010.37
2018-05-02T08:29:59.466Z,1010.45
2018-05-02T08:30:59.477Z,1010.44
2018-05-02T08:31:59.491Z,1010.35
2018-05-02T08:32:59.545Z,1010.40
2018-05-02T08:33:59.518Z,1010.51
2018-05-02T08:34:59.532Z,1010.55
2018-05-02T08:35:59.547Z,1010.63
2018-05-02T08:36:59.561Z,1010.59
2018-05-02T08:37:59.577Z,1010.66
2018-05-02T08:38:59.669Z,1010.81
2018-05-02T08:39:59.609Z,1010.79
2018-05-02T08:40:59.623Z,1010.91
2018-05-02T08:41:59.638Z,1010.97
2018-05-02T08:42:59.653Z,1010.81
2018-05-02T08:43:59.668Z,1010.90
2018-05-02T08:44:59.678Z,1010.90
2018-05-02T08:45:59.704Z,1010.79
2018-05-02T08:46:59.709Z,1010.85
2018-05-02T08:47:59.724Z,1010.92
2018-05-02T08:48:59.739Z,1011.06
2018-05-02T08:49:59.811Z,1011.01
2018-05-02T08:50:59.771Z,1010.89
2018-05-02T08:51:59.789Z,1010.86
2018-05-02T08:52:59.800Z,1010.74
2018-05-02T08:53:59.816Z,1010.66
2018-05-02T08:54:59.836Z,1010.62
2018-05-02T08:55:59.856Z,1010.54
2018-05-02T08:56:59.863Z,1010.42
2018-05-02T08:57:59.879Z,1009.93
2018-05-02T08:58:59.897Z,1010.17
2018-05-02T08:59:59.911Z,1010.22
2018-05-02T09:00:59.930Z,1009.87
2018-05-02T09:01:59.948Z,1009.85
2018-05-02T09:02:59.958Z,1009.69
2018-05-02T09:03:59.974Z,1009.84
2018-05-02T09:04:59.989Z,1009.61
2018-05-02T09:06:00.005Z,1009.68
2018-05-02T09:07:00.020Z,1009.35
2018-05-02T09:08:00.034Z,1009.29
2018-05-02T09:09:00.128Z,1009.55
2018-05-02T09:10:00.062Z,1009.55
2018-05-02T09:11:00.074Z,1009.63
2018-05-02T09:12:00.089Z,1009.62
2018-05-02T09:13:00.105Z,1009.70
2018-05-02T09:14:00.121Z,1009.79
2018-05-02T09:15:00.128Z,1009.70
2018-05-02T09:16:00.140Z,1009.92
2018-05-02T09:17:00.152Z,1009.66
2018-05-02T09:18:00.164Z,1009.60
2018-05-02T09:19:00.177Z,1009.84
2018-05-02T09:20:00.191Z,1009.65
2018-05-02T09:21:00.208Z,1009.71
2018-05-02T09:22:00.219Z,1009.86
2018-05-02T09:23:00.229Z,1009.71
2018-05-02T09:24:00.240Z,1009.75
2018-05-02T09:25:00.254Z,1009.68
2018-05-02T09:26:00.269Z,1009.53
2018-05-02T09:27:00.275Z,1009.63
2018-05-02T09:28:00.288Z,1009.66
2018-05-02T09:29:00.299Z,1009.85
2018-05-02T09:30:00.311Z,1009.84
2018-05-02T09:31:00.323Z,1009.70
2018-05-02T09:32:00.336Z,1009.73
2018-05-02T09:33:00.352Z,1009.84
2018-05-02T09:34:00.360Z,1009.77
2018-05-02T09:35:00.376Z,1009.67
2018-05-02T09:36:00.390Z,1009.76
2018-05-02T09:37:00.396Z,1009.76
2018-05-02T09:38:00.411Z,1009.63
2018-05-02T09:39:00.425Z,1009.63
2018-05-02T09:40:00.438Z,1009.70
2018-05-02T09:41:00.444Z,1009.54
2018-05-02T09:42:00.459Z,1009.76
2018-05-02T09:43:00.470Z,1009.80
2018-05-02T09:44:00.517Z,1009.60
2018-05-02T09:45:00.494Z,1009.57
2018-05-02T09:46:00.507Z,1009.53
2018-05-02T09:47:00.519Z,1009.42
2018-05-02T09:48:00.532Z,1009.30
2018-05-02T09:49:00.545Z,1009.31
2018-05-02T09:50:00.558Z,1009.26
2018-05-02T09:51:00.569Z,1009.10
2018-05-02T09:52:00.677Z,1009.19
2018-05-02T09:53:00.599Z,1009.21
2018-05-02T09:54:00.611Z,1009.24
2018-05-02T09:55:00.620Z,1009.18
2018-05-02T09:56:00.632Z,1009.21
2018-05-02T09:57:00.649Z,1009.15
2018-05-02T09:58:00.663Z,1009.03
2018-05-02T09:59:00.673Z,1009.04
2018-05-02T10:00:00.684Z,1009.15
2018-05-02T10:01:00.696Z,1009.12
2018-05-02T10:02:00.709Z,1009.00
2018-05-02T10:03:00.725Z,1009.03
2018-05-02T10:04:00.734Z,1009.14
2018-05-02T10:05:00.746Z,1009.08
2018-05-02T10:06:00.762Z,1009.09
2018-05-02T10:07:00.782Z,1009.08
2018-05-02T10:08:00.791Z,1009.20
2018-05-02T10:09:00.800Z,1009.24
2018-05-02T10:10:00.809Z,1009.14
2018-05-02T10:11:00.826Z,1009.19
2018-05-02T10:12:00.839Z,1009.16
2018-05-02T10:13:00.847Z,1009.15
2018-05-02T10:14:00.860Z,1009.23
2018-05-02T10:15:00.873Z,1009.13
2018-05-02T10:16:00.925Z,1009.09
2018-05-02T10:17:00.900Z,1009.09
2018-05-02T10:18:00.917Z,1009.01
2018-05-02T10:19:00.937Z,1009.13
2018-05-02T10:20:00.947Z,1009.09
2018-05-02T10:21:00.957Z,1009.11
2018-05-02T10:22:00.968Z,1009.12
2018-05-02T10:23:00.983Z,1009.09
2018-05-02T10:24:00.998Z,1009.10
2018-05-02T10:25:01.012Z,1009.19
2018-05-02T10:26:01.028Z,1009.10
2018-05-02T10:27:01.042Z,1009.09
2018-05-02T10:28:01.056Z,1009.05
2018-05-02T10:29:01.070Z,1009.15
2018-05-02T10:30:01.087Z,1009.17
2018-05-02T10:31:01.104Z,1008.88
2018-05-02T10:32:01.120Z,1008.86
2018-05-02T10:33:01.130Z,1008.79
2018-05-02T10:34:01.145Z,1008.74
2018-05-02T10:35:01.159Z,1008.77
2018-05-02T10:36:01.179Z,1008.65
2018-05-02T10:37:01.238Z,1008.62
2018-05-02T10:38:01.205Z,1008.58
2018-05-02T10:39:01.215Z,1008.70
2018-05-02T10:40:01.227Z,1008.64
2018-05-02T10:41:01.238Z,1008.91
2018-05-02T10:42:01.250Z,1008.56
2018-05-02T10:43:01.320Z,1008.55
2018-05-02T10:44:01.273Z,1008.55
2018-05-02T10:45:01.283Z,1008.52
2018-05-02T10:46:01.294Z,1008.79
2018-05-02T10:47:01.305Z,1008.53
2018-05-02T10:48:01.316Z,1008.47
2018-05-02T10:49:01.333Z,1008.49
2018-05-02T10:50:01.344Z,1008.41
2018-05-02T10:51:01.350Z,1008.37
2018-05-02T10:52:01.365Z,1008.31
2018-05-02T10:53:01.365Z,1008.32
2018-05-02T10:54:01.375Z,1008.39
2018-05-02T10:55:01.385Z,1008.37
2018-05-02T10:56:01.426Z,1008.34
2018-05-02T10:57:01.401Z,1008.37
2018-05-02T10:58:01.410Z,1008.26
2018-05-02T10:59:01.418Z,1008.57
2018-05-02T11:00:01.427Z,1008.51
2018-05-02T11:01:01.434Z,1008.48
2018-05-02T11:02:01.449Z,1008.44
2018-05-02T11:03:01.456Z,1008.48
2018-05-02T11:04:01.463Z,1008.55
2018-05-02T11:05:01.467Z,1008.37
2018-05-02T11:06:01.476Z,1008.21
2018-05-02T11:07:01.485Z,1008.27
2018-05-02T11:08:01.494Z,1008.60
2018-05-02T11:09:01.507Z,1008.51
2018-05-02T11:10:01.517Z,1008.49
2018-05-02T11:11:01.522Z,1008.43
2018-05-02T11:12:01.537Z,1008.21
2018-05-02T11:13:01.543Z,1008.44
2018-05-02T11:14:01.553Z,1008.37
2018-05-02T11:15:01.562Z,1008.07
2018-05-02T11:16:01.572Z,1008.13
2018-05-02T11:17:01.586Z,1008.19
2018-05-02T11:18:01.599Z,1008.20
2018-05-02T11:19:01.602Z,1008.17
2018-05-02T11:20:01.664Z,1008.04
2018-05-02T11:21:01.624Z,1008.02
2018-05-02T11:22:01.740Z,1008.09
2018-05-02T11:23:01.642Z,1007.98
2018-05-02T11:24:01.652Z,1007.97
2018-05-02T11:25:01.657Z,1007.91
2018-05-02T11:26:01.664Z,1007.96
2018-05-02T11:27:01.674Z,1007.88
2018-05-02T11:28:01.684Z,1007.82
2018-05-02T11:29:01.692Z,1007.83
2018-05-02T11:30:01.717Z,1007.83
2018-05-02T11:31:01.707Z,1007.80
2018-05-02T11:32:01.714Z,1007.85
2018-05-02T11:33:01.722Z,1007.85
2018-05-02T11:34:01.730Z,1007.77
2018-05-02T11:35:01.745Z,1007.72
2018-05-02T11:36:01.747Z,1007.66
2018-05-02T11:37:01.750Z,1007.65
2018-05-02T11:38:01.755Z,1007.65
2018-05-02T11:39:01.763Z,1007.73
2018-05-02T11:40:01.769Z,1007.60
2018-05-02T11:41:01.779Z,1007.62
2018-05-02T11:42:01.785Z,1007.58
2018-05-02T11:43:01.787Z,1007.61
2018-05-02T11:44:01.794Z,1007.61
2018-05-02T11:45:01.799Z,1007.66
2018-05-02T11:46:01.805Z,1007.49
2018-05-02T11:47:01.811Z,1007.53
2018-05-02T11:48:01.817Z,1007.55
2018-05-02T11:49:01.822Z,1007.53
2018-05-02T11:50:01.826Z,1007.57
2018-05-02T11:51:01.832Z,1007.52
2018-05-02T11:52:01.836Z,1007.50
2018-05-02T11:53:01.847Z,1007.47
2018-05-02T11:54:01.851Z,1007.46
2018-05-02T11:55:01.855Z,1007.49
2018-05-02T11:56:01.863Z,1007.59
2018-05-02T11:57:01.875Z,1007.42
2018-05-02T11:58:01.865Z,1007.51
2018-05-02T11:59:01.873Z,1007.49
2018-05-02T12:00:01.875Z,1007.42
2018-05-02T12:01:01.880Z,1007.45
2018-05-02T12:02:01.882Z,1007.41
2018-05-02T12:03:01.886Z,1007.44
2018-05-02T12:04:01.892Z,1007.45
2018-05-02T12:05:01.894Z,1007.50